sensor_id;sensor_type;location;lat;lon;timestamp;P1;durP1;ratioP1;P2;durP2;ratioP2
52470;SDS011;38382;53.160;7.026;2022-09-09T00:06:30;10.32;;;6.70;;
52470;SDS011;38382;53.160;7.026;2022-09-09T00:09:01;12.00;;;7.75;;
52470;SDS011;38382;53.160;7.026;2022-09-09T00:11:41;13.57;;;7.53;;
52470;SDS011;38382;53.160;7.026;2022-09-09T00:15:02;14.02;;;7.95;;
52470;SDS011;38382;53.160;7.026;2022-09-09T00:17:02;9.95;;;6.63;;
52470;SDS011;38382;53.160;7.026;2022-09-09T00:19:39;9.70;;;5.50;;
52470;SDS011;38382;53.160;7.026;2022-09-09T00:22:19;10.65;;;6.78;;
52470;SDS011;38382;53.160;7.026;2022-09-09T00:24:52;11.15;;;6.57;;
52470;SDS011;38382;53.160;7.026;2022-09-09T00:32:47;7.45;;;4.95;;
52470;SDS011;38382;53.160;7.026;2022-09-09T00:35:29;12.75;;;7.75;;
52470;SDS011;38382;53.160;7.026;2022-09-09T00:37:58;17.80;;;7.65;;
52470;SDS011;38382;53.160;7.026;2022-09-09T00:43:30;13.02;;;7.65;;
52470;SDS011;38382;53.160;7.026;2022-09-09T00:48:57;12.15;;;7.10;;
52470;SDS011;38382;53.160;7.026;2022-09-09T00:54:45;8.20;;;5.88;;
52470;SDS011;38382;53.160;7.026;2022-09-09T00:57:30;8.13;;;4.90;;
52470;SDS011;38382;53.160;7.026;2022-09-09T01:05:44;9.15;;;6.18;;
52470;SDS011;38382;53.160;7.026;2022-09-09T01:10:53;14.43;;;8.38;;
52470;SDS011;38382;53.160;7.026;2022-09-09T01:13:22;14.52;;;8.52;;
52470;SDS011;38382;53.160;7.026;2022-09-09T01:15:50;14.35;;;8.80;;
52470;SDS011;38382;53.160;7.026;2022-09-09T01:18:21;13.98;;;7.75;;
52470;SDS011;38382;53.160;7.026;2022-09-09T01:23:41;9.32;;;5.90;;
52470;SDS011;38382;53.160;7.026;2022-09-09T01:26:13;13.70;;;7.43;;
52470;SDS011;38382;53.160;7.026;2022-09-09T01:28:51;8.75;;;5.82;;
52470;SDS011;38382;53.160;7.026;2022-09-09T01:31:22;9.73;;;6.32;;
52470;SDS011;38382;53.160;7.026;2022-09-09T01:33:53;21.17;;;9.52;;
52470;SDS011;38382;53.160;7.026;2022-09-09T01:36:27;15.68;;;9.25;;
52470;SDS011;38382;53.160;7.026;2022-09-09T01:38:56;14.23;;;8.25;;
52470;SDS011;38382;53.160;7.026;2022-09-09T01:41:22;9.95;;;6.32;;
52470;SDS011;38382;53.160;7.026;2022-09-09T01:43:48;10.70;;;6.82;;
52470;SDS011;38382;53.160;7.026;2022-09-09T01:46:15;8.73;;;5.47;;
52470;SDS011;38382;53.160;7.026;2022-09-09T01:48:42;17.10;;;9.98;;
52470;SDS011;38382;53.160;7.026;2022-09-09T01:51:09;7.72;;;5.53;;
52470;SDS011;38382;53.160;7.026;2022-09-09T01:53:35;13.07;;;8.45;;
52470;SDS011;38382;53.160;7.026;2022-09-09T01:56:05;10.63;;;7.18;;
52470;SDS011;38382;53.160;7.026;2022-09-09T02:04:41;14.38;;;9.00;;
52470;SDS011;38382;53.160;7.026;2022-09-09T02:09:50;14.13;;;7.72;;
52470;SDS011;38382;53.160;7.026;2022-09-09T02:12:23;9.13;;;6.05;;
52470;SDS011;38382;53.160;7.026;2022-09-09T02:14:52;9.50;;;6.40;;
52470;SDS011;38382;53.160;7.026;2022-09-09T02:17:26;13.30;;;8.30;;
52470;SDS011;38382;53.160;7.026;2022-09-09T02:20:04;14.27;;;7.70;;
52470;SDS011;38382;53.160;7.026;2022-09-09T02:22:35;11.88;;;7.55;;
52470;SDS011;38382;53.160;7.026;2022-09-09T02:25:05;13.10;;;7.50;;
52470;SDS011;38382;53.160;7.026;2022-09-09T02:27:33;9.68;;;5.97;;
52470;SDS011;38382;53.160;7.026;2022-09-09T02:30:00;13.48;;;7.63;;
52470;SDS011;38382;53.160;7.026;2022-09-09T02:32:28;10.63;;;7.07;;
52470;SDS011;38382;53.160;7.026;2022-09-09T02:34:58;9.50;;;6.00;;
52470;SDS011;38382;53.160;7.026;2022-09-09T02:37:33;11.27;;;6.63;;
52470;SDS011;38382;53.160;7.026;2022-09-09T02:40:03;13.73;;;7.32;;
52470;SDS011;38382;53.160;7.026;2022-09-09T02:42:30;10.40;;;6.35;;
52470;SDS011;38382;53.160;7.026;2022-09-09T02:44:56;10.95;;;6.68;;
52470;SDS011;38382;53.160;7.026;2022-09-09T02:47:28;13.80;;;8.15;;
52470;SDS011;38382;53.160;7.026;2022-09-09T02:50:02;9.80;;;5.38;;
52470;SDS011;38382;53.160;7.026;2022-09-09T02:53:02;11.57;;;7.73;;
52470;SDS011;38382;53.160;7.026;2022-09-09T02:55:49;8.68;;;5.65;;
52470;SDS011;38382;53.160;7.026;2022-09-09T02:58:27;11.35;;;6.88;;
52470;SDS011;38382;53.160;7.026;2022-09-09T03:00:53;10.07;;;6.45;;
52470;SDS011;38382;53.160;7.026;2022-09-09T03:03:19;13.35;;;6.90;;
52470;SDS011;38382;53.160;7.026;2022-09-09T03:05:47;10.30;;;6.18;;
52470;SDS011;38382;53.160;7.026;2022-09-09T03:08:12;12.43;;;7.38;;
52470;SDS011;38382;53.160;7.026;2022-09-09T03:10:39;9.88;;;5.97;;
52470;SDS011;38382;53.160;7.026;2022-09-09T03:13:05;11.45;;;6.25;;
52470;SDS011;38382;53.160;7.026;2022-09-09T03:15:34;12.35;;;7.20;;
52470;SDS011;38382;53.160;7.026;2022-09-09T03:18:00;10.32;;;6.95;;
52470;SDS011;38382;53.160;7.026;2022-09-09T03:20:27;9.80;;;5.93;;
52470;SDS011;38382;53.160;7.026;2022-09-09T03:22:54;11.02;;;5.63;;
52470;SDS011;38382;53.160;7.026;2022-09-09T03:25:21;10.15;;;5.28;;
52470;SDS011;38382;53.160;7.026;2022-09-09T03:27:51;11.93;;;6.22;;
52470;SDS011;38382;53.160;7.026;2022-09-09T03:30:20;12.60;;;5.18;;
52470;SDS011;38382;53.160;7.026;2022-09-09T03:32:50;9.85;;;5.13;;
52470;SDS011;38382;53.160;7.026;2022-09-09T03:35:17;10.98;;;5.47;;
52470;SDS011;38382;53.160;7.026;2022-09-09T03:37:43;12.98;;;6.63;;
52470;SDS011;38382;53.160;7.026;2022-09-09T03:40:09;9.52;;;5.63;;
52470;SDS011;38382;53.160;7.026;2022-09-09T03:42:36;10.13;;;5.60;;
52470;SDS011;38382;53.160;7.026;2022-09-09T03:45:03;7.25;;;3.92;;
52470;SDS011;38382;53.160;7.026;2022-09-09T03:47:30;7.55;;;4.78;;
52470;SDS011;38382;53.160;7.026;2022-09-09T03:49:56;10.63;;;6.00;;
52470;SDS011;38382;53.160;7.026;2022-09-09T03:52:21;7.13;;;4.57;;
52470;SDS011;38382;53.160;7.026;2022-09-09T03:54:50;10.48;;;5.57;;
52470;SDS011;38382;53.160;7.026;2022-09-09T03:57:16;8.05;;;5.70;;
52470;SDS011;38382;53.160;7.026;2022-09-09T03:59:42;8.02;;;5.32;;
52470;SDS011;38382;53.160;7.026;2022-09-09T04:02:08;13.07;;;6.35;;
52470;SDS011;38382;53.160;7.026;2022-09-09T04:04:34;8.27;;;4.65;;
52470;SDS011;38382;53.160;7.026;2022-09-09T04:07:00;10.40;;;5.13;;
52470;SDS011;38382;53.160;7.026;2022-09-09T04:09:26;8.35;;;5.15;;
52470;SDS011;38382;53.160;7.026;2022-09-09T04:11:52;12.30;;;6.03;;
52470;SDS011;38382;53.160;7.026;2022-09-09T04:14:18;6.57;;;4.28;;
52470;SDS011;38382;53.160;7.026;2022-09-09T04:16:45;7.65;;;4.60;;
52470;SDS011;38382;53.160;7.026;2022-09-09T04:19:11;11.80;;;5.22;;
52470;SDS011;38382;53.160;7.026;2022-09-09T04:21:41;7.07;;;4.80;;
52470;SDS011;38382;53.160;7.026;2022-09-09T04:24:07;12.52;;;4.85;;
52470;SDS011;38382;53.160;7.026;2022-09-09T04:26:34;6.88;;;4.13;;
52470;SDS011;38382;53.160;7.026;2022-09-09T04:29:02;11.05;;;5.07;;
52470;SDS011;38382;53.160;7.026;2022-09-09T04:31:28;9.48;;;4.95;;
52470;SDS011;38382;53.160;7.026;2022-09-09T04:33:54;10.65;;;5.47;;
52470;SDS011;38382;53.160;7.026;2022-09-09T04:36:20;11.13;;;6.00;;
52470;SDS011;38382;53.160;7.026;2022-09-09T04:38:46;10.25;;;5.35;;
52470;SDS011;38382;53.160;7.026;2022-09-09T04:41:13;9.38;;;5.53;;
52470;SDS011;38382;53.160;7.026;2022-09-09T04:43:39;10.95;;;6.30;;
52470;SDS011;38382;53.160;7.026;2022-09-09T04:46:05;10.40;;;5.72;;
52470;SDS011;38382;53.160;7.026;2022-09-09T04:48:31;12.07;;;6.85;;
52470;SDS011;38382;53.160;7.026;2022-09-09T04:51:01;11.05;;;5.70;;
52470;SDS011;38382;53.160;7.026;2022-09-09T04:56:01;9.23;;;5.82;;
52470;SDS011;38382;53.160;7.026;2022-09-09T04:58:32;10.95;;;6.60;;
52470;SDS011;38382;53.160;7.026;2022-09-09T05:01:08;11.15;;;6.60;;
52470;SDS011;38382;53.160;7.026;2022-09-09T05:03:34;10.57;;;5.82;;
52470;SDS011;38382;53.160;7.026;2022-09-09T05:06:04;11.50;;;6.50;;
52470;SDS011;38382;53.160;7.026;2022-09-09T05:08:31;9.82;;;5.95;;
52470;SDS011;38382;53.160;7.026;2022-09-09T05:10:57;9.40;;;5.82;;
52470;SDS011;38382;53.160;7.026;2022-09-09T05:13:25;12.05;;;6.35;;
52470;SDS011;38382;53.160;7.026;2022-09-09T05:15:54;9.98;;;5.53;;
52470;SDS011;38382;53.160;7.026;2022-09-09T05:18:20;9.30;;;6.32;;
52470;SDS011;38382;53.160;7.026;2022-09-09T05:20:47;10.30;;;5.97;;
52470;SDS011;38382;53.160;7.026;2022-09-09T05:23:13;11.82;;;6.78;;
52470;SDS011;38382;53.160;7.026;2022-09-09T05:25:39;9.25;;;5.30;;
52470;SDS011;38382;53.160;7.026;2022-09-09T05:28:08;10.30;;;5.18;;
52470;SDS011;38382;53.160;7.026;2022-09-09T05:30:34;9.48;;;5.50;;
52470;SDS011;38382;53.160;7.026;2022-09-09T05:33:00;6.60;;;4.25;;
52470;SDS011;38382;53.160;7.026;2022-09-09T05:35:26;6.15;;;4.28;;
52470;SDS011;38382;53.160;7.026;2022-09-09T05:37:51;7.93;;;5.22;;
52470;SDS011;38382;53.160;7.026;2022-09-09T05:40:17;13.07;;;6.13;;
52470;SDS011;38382;53.160;7.026;2022-09-09T05:42:43;10.65;;;5.85;;
52470;SDS011;38382;53.160;7.026;2022-09-09T05:45:09;8.70;;;5.47;;
52470;SDS011;38382;53.160;7.026;2022-09-09T05:47:35;8.85;;;5.38;;
52470;SDS011;38382;53.160;7.026;2022-09-09T05:50:02;11.93;;;6.07;;
52470;SDS011;38382;53.160;7.026;2022-09-09T05:52:28;11.15;;;5.90;;
52470;SDS011;38382;53.160;7.026;2022-09-09T05:54:54;9.50;;;6.13;;
52470;SDS011;38382;53.160;7.026;2022-09-09T05:57:21;11.73;;;5.95;;
52470;SDS011;38382;53.160;7.026;2022-09-09T05:59:47;8.10;;;5.22;;
52470;SDS011;38382;53.160;7.026;2022-09-09T06:02:13;8.25;;;5.00;;
52470;SDS011;38382;53.160;7.026;2022-09-09T06:04:39;12.18;;;5.95;;
52470;SDS011;38382;53.160;7.026;2022-09-09T06:07:05;11.57;;;5.50;;
52470;SDS011;38382;53.160;7.026;2022-09-09T06:09:30;9.40;;;5.85;;
52470;SDS011;38382;53.160;7.026;2022-09-09T06:14:31;6.90;;;4.63;;
52470;SDS011;38382;53.160;7.026;2022-09-09T06:16:57;10.30;;;5.93;;
52470;SDS011;38382;53.160;7.026;2022-09-09T06:19:23;7.95;;;5.15;;
52470;SDS011;38382;53.160;7.026;2022-09-09T06:21:51;10.77;;;5.07;;
52470;SDS011;38382;53.160;7.026;2022-09-09T06:24:17;7.32;;;4.45;;
52470;SDS011;38382;53.160;7.026;2022-09-09T06:26:44;7.25;;;4.55;;
52470;SDS011;38382;53.160;7.026;2022-09-09T06:29:10;9.27;;;5.80;;
52470;SDS011;38382;53.160;7.026;2022-09-09T06:31:36;9.85;;;5.63;;
52470;SDS011;38382;53.160;7.026;2022-09-09T06:34:04;8.70;;;5.38;;
52470;SDS011;38382;53.160;7.026;2022-09-09T06:36:31;8.90;;;5.53;;
52470;SDS011;38382;53.160;7.026;2022-09-09T06:38:59;10.45;;;6.00;;
52470;SDS011;38382;53.160;7.026;2022-09-09T06:41:26;8.32;;;5.63;;
52470;SDS011;38382;53.160;7.026;2022-09-09T06:43:54;7.72;;;5.47;;
52470;SDS011;38382;53.160;7.026;2022-09-09T06:46:26;8.02;;;5.75;;
52470;SDS011;38382;53.160;7.026;2022-09-09T06:48:55;9.20;;;5.60;;
52470;SDS011;38382;53.160;7.026;2022-09-09T06:51:29;8.77;;;5.72;;
52470;SDS011;38382;53.160;7.026;2022-09-09T06:53:57;9.73;;;5.95;;
52470;SDS011;38382;53.160;7.026;2022-09-09T06:56:28;9.82;;;6.30;;
52470;SDS011;38382;53.160;7.026;2022-09-09T06:58:56;9.00;;;5.88;;
52470;SDS011;38382;53.160;7.026;2022-09-09T07:01:28;10.15;;;6.32;;
52470;SDS011;38382;53.160;7.026;2022-09-09T07:04:01;12.40;;;6.53;;
52470;SDS011;38382;53.160;7.026;2022-09-09T07:06:30;11.95;;;6.15;;
52470;SDS011;38382;53.160;7.026;2022-09-09T07:09:04;8.75;;;5.50;;
52470;SDS011;38382;53.160;7.026;2022-09-09T07:11:33;8.57;;;4.95;;
52470;SDS011;38382;53.160;7.026;2022-09-09T07:14:02;9.52;;;6.05;;
52470;SDS011;38382;53.160;7.026;2022-09-09T07:16:28;9.38;;;6.45;;
52470;SDS011;38382;53.160;7.026;2022-09-09T07:18:56;9.88;;;5.97;;
52470;SDS011;38382;53.160;7.026;2022-09-09T07:21:23;9.38;;;5.95;;
52470;SDS011;38382;53.160;7.026;2022-09-09T07:23:49;7.32;;;5.60;;
52470;SDS011;38382;53.160;7.026;2022-09-09T07:26:16;12.52;;;5.90;;
52470;SDS011;38382;53.160;7.026;2022-09-09T07:28:47;9.43;;;6.00;;
52470;SDS011;38382;53.160;7.026;2022-09-09T07:31:16;8.60;;;5.60;;
52470;SDS011;38382;53.160;7.026;2022-09-09T07:33:44;7.93;;;4.82;;
52470;SDS011;38382;53.160;7.026;2022-09-09T07:36:14;7.45;;;4.82;;
52470;SDS011;38382;53.160;7.026;2022-09-09T07:38:47;6.78;;;4.78;;
52470;SDS011;38382;53.160;7.026;2022-09-09T07:41:21;9.05;;;4.97;;
52470;SDS011;38382;53.160;7.026;2022-09-09T07:43:51;8.43;;;5.38;;
52470;SDS011;38382;53.160;7.026;2022-09-09T07:46:19;8.23;;;5.72;;
52470;SDS011;38382;53.160;7.026;2022-09-09T07:48:46;6.30;;;4.18;;
52470;SDS011;38382;53.160;7.026;2022-09-09T07:51:18;7.10;;;4.53;;
52470;SDS011;38382;53.160;7.026;2022-09-09T07:53:46;9.10;;;4.95;;
52470;SDS011;38382;53.160;7.026;2022-09-09T07:56:14;6.18;;;4.03;;
52470;SDS011;38382;53.160;7.026;2022-09-09T07:58:47;6.75;;;4.10;;
52470;SDS011;38382;53.160;7.026;2022-09-09T08:01:20;8.38;;;4.75;;
52470;SDS011;38382;53.160;7.026;2022-09-09T08:03:53;7.47;;;4.35;;
52470;SDS011;38382;53.160;7.026;2022-09-09T08:06:27;7.45;;;4.45;;
52470;SDS011;38382;53.160;7.026;2022-09-09T08:08:54;7.10;;;4.00;;
52470;SDS011;38382;53.160;7.026;2022-09-09T08:11:21;6.50;;;3.80;;
52470;SDS011;38382;53.160;7.026;2022-09-09T08:13:48;6.93;;;3.95;;
52470;SDS011;38382;53.160;7.026;2022-09-09T08:16:17;6.72;;;4.60;;
52470;SDS011;38382;53.160;7.026;2022-09-09T08:18:46;9.00;;;4.32;;
52470;SDS011;38382;53.160;7.026;2022-09-09T08:21:17;5.13;;;3.53;;
52470;SDS011;38382;53.160;7.026;2022-09-09T08:26:16;6.30;;;3.80;;
52470;SDS011;38382;53.160;7.026;2022-09-09T08:28:47;6.18;;;3.78;;
52470;SDS011;38382;53.160;7.026;2022-09-09T08:31:21;5.80;;;3.80;;
52470;SDS011;38382;53.160;7.026;2022-09-09T08:33:49;8.13;;;4.20;;
52470;SDS011;38382;53.160;7.026;2022-09-09T08:36:15;6.72;;;3.80;;
52470;SDS011;38382;53.160;7.026;2022-09-09T08:38:43;8.52;;;3.97;;
52470;SDS011;38382;53.160;7.026;2022-09-09T08:58:19;7.28;;;4.30;;
52470;SDS011;38382;53.160;7.026;2022-09-09T09:04:11;6.65;;;3.75;;
52470;SDS011;38382;53.160;7.026;2022-09-09T09:09:51;8.75;;;4.30;;
52470;SDS011;38382;53.160;7.026;2022-09-09T09:12:41;6.65;;;3.90;;
52470;SDS011;38382;53.160;7.026;2022-09-09T09:15:23;8.52;;;4.03;;
52470;SDS011;38382;53.160;7.026;2022-09-09T09:17:51;7.93;;;4.05;;
52470;SDS011;38382;53.160;7.026;2022-09-09T09:20:18;6.55;;;3.67;;
52470;SDS011;38382;53.160;7.026;2022-09-09T09:22:52;5.47;;;3.42;;
52470;SDS011;38382;53.160;7.026;2022-09-09T09:25:33;6.95;;;3.28;;
52470;SDS011;38382;53.160;7.026;2022-09-09T09:33:27;8.55;;;3.60;;
52470;SDS011;38382;53.160;7.026;2022-09-09T09:36:00;7.47;;;3.65;;
52470;SDS011;38382;53.160;7.026;2022-09-09T09:38:27;9.27;;;3.80;;
52470;SDS011;38382;53.160;7.026;2022-09-09T09:40:55;6.40;;;3.72;;
52470;SDS011;38382;53.160;7.026;2022-09-09T09:43:33;8.45;;;4.10;;
52470;SDS011;38382;53.160;7.026;2022-09-09T09:46:00;6.60;;;3.40;;
52470;SDS011;38382;53.160;7.026;2022-09-09T09:48:28;6.97;;;3.45;;
52470;SDS011;38382;53.160;7.026;2022-09-09T09:51:01;8.52;;;3.50;;
52470;SDS011;38382;53.160;7.026;2022-09-09T09:53:34;7.97;;;4.03;;
52470;SDS011;38382;53.160;7.026;2022-09-09T09:56:03;9.07;;;3.88;;
52470;SDS011;38382;53.160;7.026;2022-09-09T09:58:33;10.10;;;4.07;;
52470;SDS011;38382;53.160;7.026;2022-09-09T10:01:18;8.70;;;3.38;;
52470;SDS011;38382;53.160;7.026;2022-09-09T10:03:59;8.80;;;4.18;;
52470;SDS011;38382;53.160;7.026;2022-09-09T10:06:35;7.20;;;3.42;;
52470;SDS011;38382;53.160;7.026;2022-09-09T10:09:19;6.68;;;3.20;;
52470;SDS011;38382;53.160;7.026;2022-09-09T10:19:58;6.70;;;2.88;;
52470;SDS011;38382;53.160;7.026;2022-09-09T10:22:50;7.45;;;2.65;;
52470;SDS011;38382;53.160;7.026;2022-09-09T10:25:35;9.88;;;2.88;;
52470;SDS011;38382;53.160;7.026;2022-09-09T10:28:40;9.15;;;2.63;;
52470;SDS011;38382;53.160;7.026;2022-09-09T10:34:05;9.63;;;2.20;;
52470;SDS011;38382;53.160;7.026;2022-09-09T10:36:52;9.00;;;2.20;;
52470;SDS011;38382;53.160;7.026;2022-09-09T10:50:29;7.32;;;2.30;;
52470;SDS011;38382;53.160;7.026;2022-09-09T10:55:39;7.13;;;2.35;;
52470;SDS011;38382;53.160;7.026;2022-09-09T10:58:10;8.18;;;2.35;;
52470;SDS011;38382;53.160;7.026;2022-09-09T11:00:47;4.85;;;2.10;;
52470;SDS011;38382;53.160;7.026;2022-09-09T11:03:27;7.07;;;2.30;;
52470;SDS011;38382;53.160;7.026;2022-09-09T11:06:00;6.88;;;2.25;;
52470;SDS011;38382;53.160;7.026;2022-09-09T11:08:30;4.88;;;2.00;;
52470;SDS011;38382;53.160;7.026;2022-09-09T11:11:03;6.65;;;2.30;;
52470;SDS011;38382;53.160;7.026;2022-09-09T11:16:19;8.25;;;2.30;;
52470;SDS011;38382;53.160;7.026;2022-09-09T11:19:03;5.95;;;1.65;;
52470;SDS011;38382;53.160;7.026;2022-09-09T11:21:40;7.60;;;1.90;;
52470;SDS011;38382;53.160;7.026;2022-09-09T11:24:16;8.20;;;1.77;;
52470;SDS011;38382;53.160;7.026;2022-09-09T11:27:10;7.53;;;2.00;;
52470;SDS011;38382;53.160;7.026;2022-09-09T11:38:19;5.32;;;1.80;;
52470;SDS011;38382;53.160;7.026;2022-09-09T11:41:02;5.30;;;1.90;;
52470;SDS011;38382;53.160;7.026;2022-09-09T11:43:41;4.95;;;1.63;;
52470;SDS011;38382;53.160;7.026;2022-09-09T11:46:09;6.75;;;1.80;;
52470;SDS011;38382;53.160;7.026;2022-09-09T11:48:38;6.00;;;1.80;;
52470;SDS011;38382;53.160;7.026;2022-09-09T11:59:05;6.20;;;1.67;;
52470;SDS011;38382;53.160;7.026;2022-09-09T12:01:36;6.43;;;1.70;;
52470;SDS011;38382;53.160;7.026;2022-09-09T12:06:40;6.68;;;1.80;;
52470;SDS011;38382;53.160;7.026;2022-09-09T12:09:18;5.05;;;1.90;;
52470;SDS011;38382;53.160;7.026;2022-09-09T12:14:23;5.05;;;1.60;;
52470;SDS011;38382;53.160;7.026;2022-09-09T12:17:09;4.80;;;1.33;;
52470;SDS011;38382;53.160;7.026;2022-09-09T12:19:41;4.93;;;1.40;;
52470;SDS011;38382;53.160;7.026;2022-09-09T12:22:41;6.20;;;1.50;;
52470;SDS011;38382;53.160;7.026;2022-09-09T12:31:23;4.07;;;1.45;;
52470;SDS011;38382;53.160;7.026;2022-09-09T12:34:02;5.70;;;1.55;;
52470;SDS011;38382;53.160;7.026;2022-09-09T12:36:36;4.95;;;1.48;;
52470;SDS011;38382;53.160;7.026;2022-09-09T12:39:21;6.20;;;1.60;;
52470;SDS011;38382;53.160;7.026;2022-09-09T12:41:55;6.28;;;1.77;;
52470;SDS011;38382;53.160;7.026;2022-09-09T12:44:22;6.30;;;1.40;;
52470;SDS011;38382;53.160;7.026;2022-09-09T12:52:00;9.68;;;1.50;;
52470;SDS011;38382;53.160;7.026;2022-09-09T12:54:46;4.45;;;1.40;;
52470;SDS011;38382;53.160;7.026;2022-09-09T12:57:13;4.40;;;1.65;;
52470;SDS011;38382;53.160;7.026;2022-09-09T12:59:41;4.25;;;1.25;;
52470;SDS011;38382;53.160;7.026;2022-09-09T13:02:44;6.18;;;1.55;;
52470;SDS011;38382;53.160;7.026;2022-09-09T13:05:21;5.90;;;1.75;;
52470;SDS011;38382;53.160;7.026;2022-09-09T13:07:51;4.03;;;1.40;;
52470;SDS011;38382;53.160;7.026;2022-09-09T13:10:27;3.95;;;1.48;;
52470;SDS011;38382;53.160;7.026;2022-09-09T13:12:57;6.15;;;1.50;;
52470;SDS011;38382;53.160;7.026;2022-09-09T13:15:24;4.10;;;1.35;;
52470;SDS011;38382;53.160;7.026;2022-09-09T13:17:57;5.93;;;1.45;;
52470;SDS011;38382;53.160;7.026;2022-09-09T13:20:26;5.90;;;1.48;;
52470;SDS011;38382;53.160;7.026;2022-09-09T13:22:53;4.70;;;1.20;;
52470;SDS011;38382;53.160;7.026;2022-09-09T13:25:27;4.85;;;1.23;;
52470;SDS011;38382;53.160;7.026;2022-09-09T13:28:04;3.70;;;1.20;;
52470;SDS011;38382;53.160;7.026;2022-09-09T13:30:34;5.18;;;1.20;;
52470;SDS011;38382;53.160;7.026;2022-09-09T13:36:05;5.55;;;1.30;;
52470;SDS011;38382;53.160;7.026;2022-09-09T13:38:37;7.32;;;1.33;;
52470;SDS011;38382;53.160;7.026;2022-09-09T13:41:06;6.45;;;1.20;;
52470;SDS011;38382;53.160;7.026;2022-09-09T13:43:38;3.42;;;1.15;;
52470;SDS011;38382;53.160;7.026;2022-09-09T13:51:48;3.90;;;1.30;;
52470;SDS011;38382;53.160;7.026;2022-09-09T13:54:16;6.00;;;1.55;;
52470;SDS011;38382;53.160;7.026;2022-09-09T13:56:44;4.60;;;1.40;;
52470;SDS011;38382;53.160;7.026;2022-09-09T13:59:11;4.85;;;1.33;;
52470;SDS011;38382;53.160;7.026;2022-09-09T14:01:41;4.55;;;1.20;;
52470;SDS011;38382;53.160;7.026;2022-09-09T14:04:07;2.65;;;0.90;;
52470;SDS011;38382;53.160;7.026;2022-09-09T14:06:34;2.08;;;0.90;;
52470;SDS011;38382;53.160;7.026;2022-09-09T14:09:07;3.75;;;0.90;;
52470;SDS011;38382;53.160;7.026;2022-09-09T14:14:01;3.60;;;1.25;;
52470;SDS011;38382;53.160;7.026;2022-09-09T14:16:27;2.80;;;1.02;;
52470;SDS011;38382;53.160;7.026;2022-09-09T14:18:53;3.38;;;1.00;;
52470;SDS011;38382;53.160;7.026;2022-09-09T14:21:21;5.00;;;1.20;;
52470;SDS011;38382;53.160;7.026;2022-09-09T14:23:50;2.53;;;1.20;;
52470;SDS011;38382;53.160;7.026;2022-09-09T14:26:18;3.33;;;1.30;;
52470;SDS011;38382;53.160;7.026;2022-09-09T14:28:48;3.60;;;1.20;;
52470;SDS011;38382;53.160;7.026;2022-09-09T14:31:15;4.32;;;1.50;;
52470;SDS011;38382;53.160;7.026;2022-09-09T14:33:42;3.60;;;1.13;;
52470;SDS011;38382;53.160;7.026;2022-09-09T14:36:09;4.45;;;1.45;;
52470;SDS011;38382;53.160;7.026;2022-09-09T14:38:36;5.25;;;1.48;;
52470;SDS011;38382;53.160;7.026;2022-09-09T14:41:07;4.53;;;1.20;;
52470;SDS011;38382;53.160;7.026;2022-09-09T14:43:37;3.20;;;1.40;;
52470;SDS011;38382;53.160;7.026;2022-09-09T14:46:10;5.43;;;1.48;;
52470;SDS011;38382;53.160;7.026;2022-09-09T14:48:38;6.53;;;1.70;;
52470;SDS011;38382;53.160;7.026;2022-09-09T14:51:10;3.63;;;1.35;;
52470;SDS011;38382;53.160;7.026;2022-09-09T14:53:38;6.30;;;1.40;;
52470;SDS011;38382;53.160;7.026;2022-09-09T14:56:06;3.60;;;1.50;;
52470;SDS011;38382;53.160;7.026;2022-09-09T14:58:37;4.70;;;1.50;;
52470;SDS011;38382;53.160;7.026;2022-09-09T15:01:07;4.60;;;1.30;;
52470;SDS011;38382;53.160;7.026;2022-09-09T15:03:38;4.50;;;1.50;;
52470;SDS011;38382;53.160;7.026;2022-09-09T15:06:05;6.07;;;1.60;;
52470;SDS011;38382;53.160;7.026;2022-09-09T15:08:36;3.83;;;1.42;;
52470;SDS011;38382;53.160;7.026;2022-09-09T15:11:04;4.00;;;1.50;;
52470;SDS011;38382;53.160;7.026;2022-09-09T15:13:31;2.88;;;1.20;;
52470;SDS011;38382;53.160;7.026;2022-09-09T15:16:03;6.70;;;1.77;;
52470;SDS011;38382;53.160;7.026;2022-09-09T15:18:53;4.97;;;1.50;;
52470;SDS011;38382;53.160;7.026;2022-09-09T15:21:22;5.72;;;1.75;;
52470;SDS011;38382;53.160;7.026;2022-09-09T15:23:49;4.03;;;1.42;;
52470;SDS011;38382;53.160;7.026;2022-09-09T15:26:15;5.18;;;1.75;;
52470;SDS011;38382;53.160;7.026;2022-09-09T15:28:42;4.20;;;1.40;;
52470;SDS011;38382;53.160;7.026;2022-09-09T15:31:11;4.55;;;1.40;;
52470;SDS011;38382;53.160;7.026;2022-09-09T15:33:46;3.30;;;1.23;;
52470;SDS011;38382;53.160;7.026;2022-09-09T15:36:32;2.88;;;1.10;;
52470;SDS011;38382;53.160;7.026;2022-09-09T15:39:02;2.00;;;1.15;;
52470;SDS011;38382;53.160;7.026;2022-09-09T15:41:30;2.97;;;0.90;;
52470;SDS011;38382;53.160;7.026;2022-09-09T15:52:27;10.48;;;1.23;;
52470;SDS011;38382;53.160;7.026;2022-09-09T15:56:13;2.72;;;1.00;;
52470;SDS011;38382;53.160;7.026;2022-09-09T16:13:58;3.33;;;1.00;;
52470;SDS011;38382;53.160;7.026;2022-09-09T16:16:26;2.50;;;1.00;;
52470;SDS011;38382;53.160;7.026;2022-09-09T16:18:57;1.70;;;0.85;;
52470;SDS011;38382;53.160;7.026;2022-09-09T16:21:25;1.38;;;0.90;;
52470;SDS011;38382;53.160;7.026;2022-09-09T16:23:56;2.13;;;0.90;;
52470;SDS011;38382;53.160;7.026;2022-09-09T16:26:24;1.95;;;1.10;;
52470;SDS011;38382;53.160;7.026;2022-09-09T16:28:50;1.80;;;0.88;;
52470;SDS011;38382;53.160;7.026;2022-09-09T16:31:20;1.85;;;0.90;;
52470;SDS011;38382;53.160;7.026;2022-09-09T16:33:50;1.42;;;0.90;;
52470;SDS011;38382;53.160;7.026;2022-09-09T16:36:17;3.83;;;1.20;;
52470;SDS011;38382;53.160;7.026;2022-09-09T16:38:44;3.28;;;1.30;;
52470;SDS011;38382;53.160;7.026;2022-09-09T16:41:10;4.78;;;1.13;;
52470;SDS011;38382;53.160;7.026;2022-09-09T16:46:13;2.60;;;1.15;;
52470;SDS011;38382;53.160;7.026;2022-09-09T17:03:38;4.90;;;1.60;;
52470;SDS011;38382;53.160;7.026;2022-09-09T17:09:53;3.05;;;1.30;;
52470;SDS011;38382;53.160;7.026;2022-09-09T17:12:31;3.25;;;1.20;;
52470;SDS011;38382;53.160;7.026;2022-09-09T17:22:22;3.75;;;1.80;;
52470;SDS011;38382;53.160;7.026;2022-09-09T17:52:44;4.38;;;1.63;;
52470;SDS011;38382;53.160;7.026;2022-09-09T17:55:10;4.63;;;1.65;;
52470;SDS011;38382;53.160;7.026;2022-09-09T17:57:36;4.93;;;1.60;;
52470;SDS011;38382;53.160;7.026;2022-09-09T18:00:04;3.95;;;1.95;;
52470;SDS011;38382;53.160;7.026;2022-09-09T18:02:31;3.00;;;1.45;;
52470;SDS011;38382;53.160;7.026;2022-09-09T18:04:56;3.80;;;1.90;;
52470;SDS011;38382;53.160;7.026;2022-09-09T18:07:22;3.78;;;1.92;;
52470;SDS011;38382;53.160;7.026;2022-09-09T18:09:49;3.53;;;1.65;;
52470;SDS011;38382;53.160;7.026;2022-09-09T18:15:29;4.57;;;1.73;;
52470;SDS011;38382;53.160;7.026;2022-09-09T18:18:19;4.22;;;1.52;;
52470;SDS011;38382;53.160;7.026;2022-09-09T18:21:35;3.97;;;1.80;;
52470;SDS011;38382;53.160;7.026;2022-09-09T18:27:58;2.78;;;1.40;;
52470;SDS011;38382;53.160;7.026;2022-09-09T18:33:59;4.05;;;1.70;;
52470;SDS011;38382;53.160;7.026;2022-09-09T18:37:13;4.32;;;1.88;;
52470;SDS011;38382;53.160;7.026;2022-09-09T18:40:26;2.78;;;1.50;;
52470;SDS011;38382;53.160;7.026;2022-09-09T18:42:59;3.95;;;1.80;;
52470;SDS011;38382;53.160;7.026;2022-09-09T18:45:25;3.95;;;1.67;;
52470;SDS011;38382;53.160;7.026;2022-09-09T18:47:52;2.85;;;1.52;;
52470;SDS011;38382;53.160;7.026;2022-09-09T18:50:17;4.60;;;1.40;;
52470;SDS011;38382;53.160;7.026;2022-09-09T18:52:43;4.20;;;1.40;;
52470;SDS011;38382;53.160;7.026;2022-09-09T18:55:09;5.30;;;1.65;;
52470;SDS011;38382;53.160;7.026;2022-09-09T18:57:35;4.20;;;1.60;;
52470;SDS011;38382;53.160;7.026;2022-09-09T19:00:03;7.28;;;2.22;;
52470;SDS011;38382;53.160;7.026;2022-09-09T19:02:29;2.78;;;1.63;;
52470;SDS011;38382;53.160;7.026;2022-09-09T19:04:55;4.10;;;2.00;;
52470;SDS011;38382;53.160;7.026;2022-09-09T19:07:21;3.35;;;1.67;;